Tiempo atmosférico en la estación meteorológica de VilagarcÍa de Arousa, Pontevedra (32 m.)



Fecha
DESCASC
Temp. máxima en grados centígrados (hora)
DESCASC
Temp. mínima en grados centígrados (hora)
DESCASC
Temp. media en grados centígrados
DESCASC
Racha de viento máxima en m/sg (hora)
DESCASC
Velocidad máxima media en intervalos de 10 minutos(hora)
DESCASC
Precipitaciones diarias en mm
DESCASC
Precipitaciones de 00:00 a 06:00 en mm
DESCASC
Precipitaciones de 06:00 a 12:00 en mm
DESCASC
Precipitaciones de 12:00 a 18:00 en mm
DESCASC
Precipitaciones de 18:00 a 24:00 en mm
DESCASC
22-11-2020 18.5 (16:50) 6.3 (08:30) 12.4 2.78 (18:00) 2.5 (18:10) 0 0 0 0 0
21-11-2020 18.7 (16:50) 7.8 (08:50) 13.3 4.17 (03:00) 2.78 (03:00) 0 0 0 0 0
20-11-2020 18.4 (16:10) 10.5 (08:20) 14.4 9.17 (01:20) 4.72 (06:10) 0 0 0 0 0
19-11-2020 19.9 (15:10) 12 (00:00) 15.9 10.83 (19:50) 5 (06:40) 0 0 0 0 0
18-11-2020 19.5 (14:40) 15.6 (00:00) 17.6 10.83 (02:40) 5.28 (04:40) 3.2 0.2 1.2 0 1.8
17-11-2020 18.3 (15:10) 7.1 (00:00) 12.7 8.61 (17:20) 4.72 (16:40) 0 0 0 0 0
16-11-2020 16.7 (16:20) 7.5 (00:00) 12.1 3.33 (14:30) 2.22 (14:30) 0 0 0 0 0
15-11-2020 17.6 (10:40) 11.8 (00:00) 14.7 15.28 (04:20) 7.22 (03:40) 12 4 3.2 4.6 0.2
14-11-2020 17.9 (11:50) 13.3 (00:00) 15.6 11.67 (15:40) 6.67 (15:40) 6.6 0 0 2 4.6
13-11-2020 19.3 (15:30) 10.1 (00:00) 14.7 8.33 (12:40) 4.72 (12:40) 0 0 0 0 0
12-11-2020 19.9 (14:40) 13.1 (00:00) 16.5 8.33 (01:30) 4.17 (15:10) 4.4 4.4 0 0 0
11-11-2020 17.2 (14:30) 9.1 (00:00) 13.2 10 (13:10) 4.44 (11:40) 5.4 0 0 0 5.4
10-11-2020 18.8 (15:00) 9.9 (00:00) 14.3 6.11 (12:20) 3.33 (12:50) 0 0 0 0 0
09-11-2020 17.2 (14:30) 11.5 (00:00) 14.4 11.11 (02:30) 5.83 (02:40) 22.4 21.2 1.2 0 0
08-11-2020 17.8 (13:40) 13.7 (00:00) 15.7 16.67 (05:30) 7.5 (05:50) 18.2 14.6 1 0.6 2
07-11-2020 17.4 (13:30) 13 (00:00) 15.2 13.33 (15:20) 6.39 (15:10) 10.4 0.2 0.6 9.6 0
06-11-2020 17.1 (10:20) 13.4 (00:00) 15.3 11.67 (12:50) 6.11 (04:30) 3.6 0 1.6 1.6 0.4
05-11-2020 18 (16:30) 11 (00:00) 14.5 16.94 (01:30) 8.89 (01:30) 0 0 0 0 0
04-11-2020 14.7 (15:10) 6.5 (00:00) 10.6 15 (16:40) 8.33 (22:50) 0 0 0 0 0
03-11-2020 15.3 (14:40) 8.8 (00:00) 12.1 10 (16:30) 5.28 (13:50) 0 0 0 0 0
02-11-2020 18 (00:20) 9.5 (00:00) 13.8 11.39 (05:00) 6.11 (02:50) 5.6 1.6 4 0 0
01-11-2020 18.1 (14:40) 17.2 (00:00) 17.7 13.06 (04:10) 6.11 (04:10) 14 6 2.6 4.2 1.2
31-10-2020 18.1 (18:30) 16.3 (00:00) 17.2 14.72 (12:20) 6.67 (12:20) 0.8 0 0.2 0 0.6
30-10-2020 18.4 (13:50) 9.6 (00:00) 14 8.33 (22:00) 5 (22:00) 0 0 0 0 0
29-10-2020 18.3 (14:10) 10.7 (00:00) 14.5 6.11 (13:40) 3.61 (14:40) 0 0 0 0 0
28-10-2020 17.6 (15:10) 12.2 (00:00) 14.9 8.33 (11:30) 4.17 (15:50) 1 0.6 0.4 0 0
27-10-2020 15.7 (17:10) 13 (00:00) 14.3 15 (15:20) 6.94 (14:10) 17.2 0.2 1.4 10.6 5
26-10-2020 16.2 (16:00) 6.9 (00:00) 11.6 8.61 (16:40) 5.56 (16:40) 8 4.4 2.8 0.6 0.2

Gráficas

Temp. máximas Temp. mínimas Temp. medias Precipitaciones Rachas de viento máximas Velocidades máximas media en intervalos de 10 minutos

Datos horarios

Fecha y hora oficial Temperatura (ºC) Velocidad del viento (km/h) Dirección del viento Racha (km/h) Dirección de racha Precipitación (mm) Presión (hPa) Tendencia (hPa) Humedad (%)
2020-11-24 23:00:00 13.1 7 Sudoeste 34 Sur 5.4 -- -- 97
2020-11-24 22:00:00 12.9 14 Sudoeste 37 Sudeste 9.4 -- -- 97
2020-11-24 21:00:00 13.7 17 Sur 36 Sur 2.2 -- -- 91
2020-11-24 20:00:00 13.6 13 Sur 46 Sur 3.6 -- -- 91
2020-11-24 19:00:00 14.4 16 Sur 35 Sur 0.2 -- -- 86
2020-11-24 18:00:00 15.1 18 Sur 40 Sur 0 -- -- 83
2020-11-24 17:00:00 14.4 14 Sur 32 Sudeste 0.4 -- -- 88
2020-11-24 16:00:00 15.4 20 Sur 37 Sur 0 -- -- 79
2020-11-24 15:00:00 15.4 15 Sur 32 Sur 0 -- -- 79
2020-11-24 14:00:00 15.3 15 Sur 27 Sudoeste 0 -- -- 80
2020-11-24 13:00:00 13 5 Oeste 8 Este 0 -- -- 91
2020-11-24 12:00:00 12.8 5 Este 14 Sudeste 0 -- -- 91
2020-11-24 11:00:00 10.9 7 Sudeste 12 Sudeste 0 -- -- 98
2020-11-24 10:00:00 9.6 4 Sudeste 8 Este 0 -- -- 100
2020-11-24 09:00:00 7.9 5 Este 9 Este 0 -- -- 100
2020-11-24 08:00:00 8.5 6 Sudeste 10 Este 0 -- -- 100
2020-11-24 07:00:00 8.7 2 Nordeste 12 Sur 0 -- -- 100
2020-11-24 06:00:00 8.4 7 Sur 14 Sur 0 -- -- 100
2020-11-24 05:00:00 7 5 Sudeste 8 Sudeste 0 -- -- 100
2020-11-24 04:00:00 7.1 0 Calma 5 Este 0 -- -- 100
2020-11-24 03:00:00 7.5 2 Noroeste 6 Sudeste 0 -- -- 100
2020-11-24 02:00:00 7.4 3 Sudeste 5 Sudeste 0 -- -- 100
2020-11-24 01:00:00 7.9 4 Sudeste 5 Sur 0 -- -- 99
2020-11-24 00:00:00 8.6 0 Calma 5 Sur 0 -- -- 98
2020-11-23 23:00:00 8.6 3 Sudeste 7 Sudeste 0 -- -- 98
2020-11-23 22:00:00 9.3 4 Sudeste 6 Sur 0 -- -- 97
2020-11-23 21:00:00 9.4 4 Sur 6 Sur 0 -- -- 94
2020-11-23 20:00:00 10 4 Sudeste 8 Sur 0 -- -- 92
2020-11-23 19:00:00 11.3 5 Sur 8 Sur 0 -- -- 85
2020-11-23 18:00:00 14.1 3 Noroeste 3 Noroeste 0 -- -- 78
2020-11-23 17:00:00 16 3 Noroeste 7 Noroeste 0 -- -- 67
2020-11-23 16:00:00 15.5 6 Noroeste 8 Noroeste 0 -- -- 67
2020-11-23 15:00:00 15 6 Noroeste 10 Oeste 0 -- -- 72
2020-11-23 14:00:00 13.9 6 Noroeste 9 Noroeste 0 -- -- 77
2020-11-23 13:00:00 12.4 6 Noroeste 10 Noroeste 0 -- -- 83
2020-11-23 12:00:00 11.1 0 Calma 9 Este 0 -- -- 84
2020-11-23 11:00:00 8.7 5 Este 6 Este 0 -- -- 91
2020-11-23 10:00:00 7.4 5 Este 12 Sudeste 0 -- -- 94
2020-11-23 09:00:00 5.4 5 Este 8 Sudeste 0 -- -- 99
2020-11-23 08:00:00 5.9 5 Sudeste 10 Este 0 -- -- 97
2020-11-23 07:00:00 6.2 8 Este 12 Este 0 -- -- 98
2020-11-23 06:00:00 6.2 4 Sudeste 8 Sudeste 0 -- -- 98
2020-11-23 05:00:00 6.8 4 Este 10 Sudeste 0 -- -- 97
2020-11-23 04:00:00 7.2 4 Sudeste 8 Sudeste 0 -- -- 97
2020-11-23 03:00:00 7.9 4 Sudeste 9 Sudeste 0 -- -- 96
2020-11-23 02:00:00 7.7 4 Sudeste 9 Sudeste 0 -- -- 95
2020-11-23 01:00:00 8.3 5 Sudeste 10 Sudeste 0 -- -- 94
2020-11-23 00:00:00 8.7 7 Sudeste 10 Sudeste 0 -- -- 95
2020-11-22 23:00:00 8.5 0 Calma 6 Sudeste 0 -- -- 93
2020-11-22 22:00:00 9.5 3 Sudeste 6 Sudeste 0 -- -- 88
2020-11-22 21:00:00 9.8 3 Sudeste 6 Sur 0 -- -- 84
2020-11-22 20:00:00 10.9 7 Sur 8 Sur 0 -- -- 77
2020-11-22 19:00:00 12 8 Sur 10 Sur 0 -- -- 75
2020-11-22 18:00:00 14.2 8 Sur 10 Sur 0 -- -- 71
2020-11-22 17:00:00 18.4 2 Sur 6 Oeste 0 -- -- 61
2020-11-22 16:00:00 17.9 5 Noroeste 9 Oeste 0 -- -- 51
2020-11-22 15:00:00 17.8 6 Noroeste 8 Oeste 0 -- -- 51
2020-11-22 14:00:00 16.4 4 Noroeste 9 Oeste 0 -- -- 69
2020-11-22 13:00:00 14.9 5 Noroeste 7 Noroeste 0 -- -- 79
2020-11-22 12:00:00 13 0 Calma 6 Este 0 -- -- 83
2020-11-22 11:00:00 11.7 4 Este 10 Este 0 -- -- 89
2020-11-22 10:00:00 8.3 2 Este 6 Sudeste 0 -- -- 99
2020-11-22 09:00:00 6.5 0 Calma 3 Este 0 -- -- 100
2020-11-22 08:00:00 6.6 3 Sudeste 7 Sudeste 0 -- -- 100
2020-11-22 07:00:00 6.9 4 Sudeste 6 Noroeste 0 -- -- 100
2020-11-22 06:00:00 7 0 Calma 5 Sudeste 0 -- -- 99
2020-11-22 05:00:00 7.7 3 Sudeste 4 Sur 0 -- -- 99
2020-11-22 04:00:00 8 0 Calma 5 Sudeste 0 -- -- 99
2020-11-22 03:00:00 8.4 2 Sur 7 Sudeste 0 -- -- 99
2020-11-22 02:00:00 8.3 3 Sudeste 6 Este 0 -- -- 97
2020-11-22 01:00:00 8.9 4 Este 9 Sudeste 0 -- -- 97
2020-11-22 00:00:00 9 6 Este 7 Este 0 -- -- 97
2020-11-21 23:00:00 9.3 3 Sudeste 7 Sudeste 0 -- -- 95
2020-11-21 22:00:00 9.8 3 Sudeste 6 Este 0 -- -- 94
2020-11-21 21:00:00 10.7 5 Sudeste 6 Sur 0 -- -- 90
2020-11-21 20:00:00 11.7 4 Sur 7 Sur 0 -- -- 85
2020-11-21 19:00:00 12.6 5 Sur 8 Sur 0 -- -- 82
2020-11-21 18:00:00 15.3 5 Sur 8 Sudoeste 0 -- -- 72
2020-11-21 17:00:00 18.3 5 Sudoeste 8 Oeste 0 -- -- 53
2020-11-21 16:00:00 18.3 6 Noroeste 9 Oeste 0 -- -- 62
2020-11-21 15:00:00 17.5 8 Noroeste 12 Noroeste 0 -- -- 64
2020-11-21 14:00:00 17.3 4 Noroeste 8 Noroeste 0 -- -- 67
2020-11-21 13:00:00 16.4 4 Noroeste 6 Noroeste 0 -- -- 69
2020-11-21 12:00:00 14.9 0 Calma 6 Este 0 -- -- 74
2020-11-21 11:00:00 13 3 Este 9 Sudeste 0 -- -- 78
2020-11-21 10:00:00 10.4 7 Sudeste 14 Sudeste 0 -- -- 85
2020-11-21 09:00:00 8 7 Sudeste 9 Sudeste 0 -- -- 95
2020-11-21 08:00:00 8.8 5 Sudeste 10 Este 0 -- -- 90
2020-11-21 07:00:00 8.9 6 Este 10 Sudeste 0 -- -- 91
2020-11-21 06:00:00 8.8 5 Este 13 Sudeste 0 -- -- 93
2020-11-21 05:00:00 9.4 5 Sudeste 12 Sudeste 0 -- -- 91
2020-11-21 04:00:00 9.6 6 Sudeste 13 Sudeste 0 -- -- 92
2020-11-21 03:00:00 9.6 10 Sudeste 15 Sudeste 0 -- -- 93
2020-11-21 02:00:00 10 3 Este 8 Sudeste 0 -- -- 92
2020-11-21 01:00:00 10.5 5 Sudeste 9 Este 0 -- -- 90
2020-11-21 00:00:00 11.2 5 Sudeste 9 Sudeste 0 -- -- 89
2020-11-20 23:00:00 11.9 3 Nordeste 7 Norte 0 -- -- 85
2020-11-20 22:00:00 13 3 Nordeste 8 Norte 0 -- -- 79
2020-11-20 21:00:00 13.7 0 Calma 13 Nordeste 0 -- -- 77
2020-11-20 20:00:00 14.6 3 Nordeste 9 Nordeste 0 -- -- 72
2020-11-20 19:00:00 14.5 4 Sur 9 Sudeste 0 -- -- 73
2020-11-20 18:00:00 16.4 7 Sur 22 Nordeste 0 -- -- 71
2020-11-20 17:00:00 18 13 Nordeste 24 Nordeste 0 -- -- 61
2020-11-20 16:00:00 18.3 10 Norte 22 Nordeste 0 -- -- 62
2020-11-20 15:00:00 18.2 11 Norte 17 Norte 0 -- -- 66
2020-11-20 14:00:00 17.3 10 Norte 18 Norte 0 -- -- 70
2020-11-20 13:00:00 15.9 11 Norte 19 Nordeste 0 -- -- 73
2020-11-20 12:00:00 14.5 9 Norte 18 Norte 0 -- -- 76
2020-11-20 11:00:00 12.8 9 Norte 17 Norte 0 -- -- 80
2020-11-20 10:00:00 11.5 5 Noroeste 17 Norte 0 -- -- 83
2020-11-20 09:00:00 10.9 9 Norte 19 Nordeste 0 -- -- 85
2020-11-20 08:00:00 10.6 13 Norte 26 Nordeste 0 -- -- 86
2020-11-20 07:00:00 10.7 16 Nordeste 31 Norte 0 -- -- 84
2020-11-20 06:00:00 10.9 16 Nordeste 32 Nordeste 0 -- -- 84
2020-11-20 05:00:00 10.9 11 Norte 18 Nordeste 0 -- -- 86
2020-11-20 04:00:00 11.3 6 Nordeste 20 Nordeste 0 -- -- 84
2020-11-20 03:00:00 11.7 12 Nordeste 24 Nordeste 0 -- -- 85
2020-11-20 02:00:00 11.8 6 Nordeste 33 Nordeste 0 -- -- 85
2020-11-20 01:00:00 12.1 11 Nordeste 28 Nordeste 0 -- -- 85
2020-11-20 00:00:00 12 14 Nordeste 26 Nordeste 0 -- -- 87
2020-11-19 23:00:00 12.4 11 Nordeste 30 Nordeste 0 -- -- 86
2020-11-19 22:00:00 12.5 14 Nordeste 27 Este 0 -- -- 86
2020-11-19 21:00:00 13.1 5 Este 24 Nordeste 0 -- -- 84
2020-11-19 20:00:00 14.2 14 Nordeste 39 Este 0 -- -- 82
2020-11-19 19:00:00 15.1 11 Nordeste 34 Nordeste 0 -- -- 82
2020-11-19 18:00:00 16.3 8 Norte 26 Nordeste 0 -- -- 80
2020-11-19 17:00:00 18 11 Nordeste 26 Nordeste 0 -- -- 77
2020-11-19 16:00:00 19.1 14 Norte 27 Norte 0 -- -- 77
2020-11-19 15:00:00 19.8 9 Norte 22 Norte 0 -- -- 74
2020-11-19 14:00:00 18.3 13 Norte 21 Nordeste 0 -- -- 77
2020-11-19 13:00:00 17.6 9 Norte 19 Norte 0 -- -- 79
2020-11-19 12:00:00 16.3 9 Nordeste 23 Norte 0 -- -- 82
2020-11-19 11:00:00 15 13 Norte 26 Norte 0 -- -- 86
2020-11-19 10:00:00 14 13 Norte 24 Norte 0 -- -- 88
2020-11-19 09:00:00 13.4 3 Sudoeste 27 Nordeste 0 -- -- 91
2020-11-19 08:00:00 13.6 10 Nordeste 30 Este 0 -- -- 91
2020-11-19 07:00:00 14 10 Este 34 Este 0 -- -- 93
2020-11-19 06:00:00 14.4 13 Nordeste 25 Nordeste 0 -- -- 95
2020-11-19 05:00:00 14.4 4 Este 13 Norte 0 -- -- 96
2020-11-19 04:00:00 14.8 12 Nordeste 27 Nordeste 0 -- -- 98
2020-11-19 03:00:00 14.3 7 Este 14 Este 0 -- -- 99
2020-11-19 02:00:00 14.6 5 Este 10 Nordeste 0 -- -- 99
2020-11-19 01:00:00 15.1 6 Sudeste 10 Norte 0 -- -- 99
2020-11-19 00:00:00 15.7 8 Norte 15 Norte 0 -- -- 99
2020-11-18 23:00:00 15.8 6 Oeste 10 Oeste 0 -- -- 99
2020-11-18 22:00:00 15.9 5 Sudeste 14 Norte 0 -- -- 99
2020-11-18 21:00:00 16.2 4 Este 21 Este 0 -- -- 98
2020-11-18 20:00:00 16.6 9 Este 13 Este 1.8 -- -- 96
2020-11-18 19:00:00 17 0 Calma 8 Noroeste 0 -- -- 94
2020-11-18 18:00:00 17.4 5 Noroeste 8 Noroeste 0 -- -- 92
2020-11-18 17:00:00 17.9 0 Calma 8 Oeste 0 -- -- 91
2020-11-18 16:00:00 17.9 7 Noroeste 13 Noroeste 0 -- -- 91
2020-11-18 15:00:00 19.4 6 Sudoeste 21 Sur 0 -- -- 84
2020-11-18 14:00:00 19 10 Sur 26 Sur 0 -- -- 87
2020-11-18 13:00:00 18.2 14 Sur 30 Sur 0 -- -- 92
2020-11-18 12:00:00 18.6 16 Sur 36 Sudoeste 0 -- -- 90
2020-11-18 11:00:00 18.2 13 Sur 31 Sur 0 -- -- 92
2020-11-18 10:00:00 17.6 13 Sur 28 Sur 0 -- -- 95
2020-11-18 09:00:00 16.9 13 Sur 32 Sur 0.4 -- -- 98
2020-11-18 08:00:00 16.8 10 Sur 26 Sudoeste 0.6 -- -- 98
2020-11-18 07:00:00 16.9 8 Sur 28 Sur 0.2 -- -- 97
2020-11-18 06:00:00 17.1 17 Sudoeste 36 Sudoeste 0 -- -- 95
2020-11-18 05:00:00 17 16 Sur 38 Sur 0 -- -- 96
2020-11-18 04:00:00 17.2 15 Sudoeste 37 Sudoeste 0 -- -- 95
2020-11-18 03:00:00 17.5 18 Sur 39 Sur 0 -- -- 92
2020-11-18 02:00:00 17.3 16 Sur 33 Sur 0.2 -- -- 91
2020-11-18 01:00:00 17 6 Sur 19 Sur 0 -- -- 91
2020-11-18 00:00:00 17.3 9 Sur 27 Sur 0 -- -- 87
2020-11-17 23:00:00 17.7 15 Sur 30 Sur 0 -- -- 83
2020-11-17 22:00:00 17.1 10 Sudeste 21 Sur 0 -- -- 86
2020-11-17 21:00:00 17.3 12 Sudeste 22 Sudeste 0 -- -- 84
2020-11-17 20:00:00 17 11 Sur 28 Sudeste 0 -- -- 85
2020-11-17 19:00:00 16.2 11 Sudoeste 27 Sur 0 -- -- 91
2020-11-17 18:00:00 16.7 10 Sudoeste 31 Sudoeste 0 -- -- 89
2020-11-17 17:00:00 17.1 11 Sudoeste 28 Sudoeste 0 -- -- 82
2020-11-17 16:00:00 17.6 15 Sudoeste 24 Sudoeste 0 -- -- 76
2020-11-17 15:00:00 18.1 8 Oeste 16 Sudoeste 0 -- -- 69
2020-11-17 14:00:00 17.6 8 Noroeste 11 Oeste 0 -- -- 64
2020-11-17 13:00:00 16.3 5 Noroeste 8 Oeste 0 -- -- 78
2020-11-17 12:00:00 15.1 4 Norte 12 Este 0 -- -- 82
2020-11-17 11:00:00 13.4 5 Este 14 Este 0 -- -- 87
2020-11-17 10:00:00 10.8 7 Este 13 Este 0 -- -- 100
2020-11-17 09:00:00 7.9 8 Este 12 Este 0 -- -- 100
2020-11-17 08:00:00 7.6 3 Noroeste 7 Nordeste 0 -- -- 100
2020-11-17 07:00:00 8 5 Este 10 Sudeste 0 -- -- 100
2020-11-17 06:00:00 7.1 5 Este 7 Este 0 -- -- 100
2020-11-17 05:00:00 7.5 4 Este 8 Sudeste 0 -- -- 100
2020-11-17 04:00:00 7.6 4 Sudeste 5 Este 0 -- -- 100
2020-11-17 03:00:00 8 3 Nordeste 5 Este 0 -- -- 100
2020-11-17 02:00:00 8.4 4 Nordeste 6 Sudeste 0 -- -- 100
2020-11-17 01:00:00 8.6 4 Este 11 Sudeste 0 -- -- 100
2020-11-17 00:00:00 8.7 4 Este 6 Sudeste 0 -- -- 99
2020-11-16 23:00:00 9.4 3 Este 6 Sur 0 -- -- 99
2020-11-16 22:00:00 9.8 2 Sudeste 6 Sudeste 0 -- -- 97
2020-11-16 21:00:00 10.5 2 Sur 6 Sur 0 -- -- 95
2020-11-16 20:00:00 11.2 3 Sudeste 6 Sur 0 -- -- 94
2020-11-16 19:00:00 12.2 4 Sudeste 8 Sur 0 -- -- 90
2020-11-16 18:00:00 15.1 2 Sudoeste 9 Norte 0 -- -- 78
2020-11-16 17:00:00 16.6 4 Norte 10 Norte 0 -- -- 71
2020-11-16 16:00:00 16.6 6 Norte 11 Noroeste 0 -- -- 71
2020-11-16 15:00:00 16 6 Norte 12 Norte 0 -- -- 72
2020-11-16 14:00:00 14.9 6 Noroeste 10 Norte 0 -- -- 86
2020-11-16 13:00:00 13.4 5 Norte 10 Norte 0 -- -- 94
2020-11-16 12:00:00 12.7 2 Norte 6 Nordeste 0 -- -- 96
2020-11-16 11:00:00 11.3 3 Este 9 Sudeste 0 -- -- 100
2020-11-16 10:00:00 9.4 5 Este 8 Este 0 -- -- 100
2020-11-16 09:00:00 7.7 3 Este 5 Sur 0 -- -- 100
2020-11-16 08:00:00 7.9 4 Nordeste 6 Norte 0 -- -- 100
2020-11-16 07:00:00 8 4 Este 8 Este 0 -- -- 100
2020-11-16 06:00:00 8.4 0 Calma 5 Este 0 -- -- 100
2020-11-16 05:00:00 8.9 2 Sudeste 5 Este 0 -- -- 100
2020-11-16 04:00:00 9.7 4 Sudeste 10 Sudeste 0 -- -- 100
2020-11-16 03:00:00 9.9 6 Este 10 Sudeste 0 -- -- 100
2020-11-16 02:00:00 10.3 4 Sudeste 6 Sudeste 0 -- -- 99
2020-11-16 01:00:00 10.9 4 Sudeste 6 Sudeste 0 -- -- 98
2020-11-16 00:00:00 11.8 4 Sur 8 Sur 0 -- -- 97
2020-11-15 23:00:00 13 4 Sudeste 6 Este 0 -- -- 97
2020-11-15 22:00:00 13.4 4 Sur 9 Sudeste 0 -- -- 95
2020-11-15 21:00:00 13.7 0 Calma 8 Sur 0 -- -- 96
2020-11-15 20:00:00 14 6 Norte 12 Norte 0.2 -- -- 95
2020-11-15 19:00:00 14.3 6 Sudoeste 10 Sudoeste 0 -- -- 95
2020-11-15 18:00:00 14.9 4 Oeste 15 Oeste 0 -- -- 92
2020-11-15 17:00:00 15.4 8 Oeste 23 Sudoeste 0 -- -- 97
2020-11-15 16:00:00 15.7 11 Sudoeste 21 Sudoeste 0 -- -- 98
2020-11-15 15:00:00 15.2 9 Sudoeste 17 Sudoeste 0.2 -- -- 100
2020-11-15 14:00:00 14.8 8 Sudoeste 19 Sudoeste 0.6 -- -- 100
2020-11-15 13:00:00 14.4 8 Sudoeste 20 Oeste 3.8 -- -- 100
2020-11-15 12:00:00 14.4 12 Oeste 43 Sudoeste 3 -- -- 100
2020-11-15 11:00:00 17.6 23 Sudoeste 37 Sudoeste 0 -- -- 98
2020-11-15 10:00:00 17.3 15 Sudoeste 35 Sudoeste 0 -- -- 99
2020-11-15 09:00:00 17.4 21 Sudoeste 42 Sudoeste 0 -- -- 100
2020-11-15 08:00:00 17.3 22 Sudoeste 40 Sudoeste 0.2 -- -- 100
2020-11-15 07:00:00 16.8 19 Sudoeste 41 Sudoeste 0 -- -- 100
2020-11-15 06:00:00 17 22 Sudoeste 45 Sudoeste 0.8 -- -- 100
2020-11-15 05:00:00 17.2 26 Sudoeste 55 Sudoeste 1.4 -- -- 100
2020-11-15 04:00:00 17.3 24 Sudoeste 51 Sudoeste 0.8 -- -- 100
2020-11-15 03:00:00 17.2 23 Sudoeste 44 Sudoeste 0.6 -- -- 100
2020-11-15 02:00:00 17.2 23 Sudoeste 50 Sudoeste 0.4 -- -- 99
2020-11-15 01:00:00 17.2 16 Sudoeste 37 Sur 0 -- -- 98
2020-11-15 00:00:00 17.1 18 Sudoeste 42 Sudoeste 0.2 -- -- 99
2020-11-14 23:00:00 17 19 Sudoeste 40 Sudoeste 0.4 -- -- 100
2020-11-14 22:00:00 16.6 15 Sudoeste 28 Sudoeste 2 -- -- 99
2020-11-14 21:00:00 16.1 12 Sudoeste 29 Sur 1 -- -- 99
2020-11-14 20:00:00 15.7 9 Sudoeste 27 Sudoeste 1 -- -- 99
2020-11-14 19:00:00 15.9 14 Sudoeste 31 Sudoeste 0 -- -- 98
2020-11-14 18:00:00 15.9 18 Sudoeste 39 Sudoeste 1.4 -- -- 98
2020-11-14 17:00:00 16.8 18 Sudoeste 39 Sudoeste 0 -- -- 96
2020-11-14 16:00:00 17.1 20 Sur 42 Sudoeste 0 -- -- 94
2020-11-14 15:00:00 17 18 Sur 36 Sudoeste 0.6 -- -- 95
2020-11-14 14:00:00 17.1 16 Sudoeste 33 Sur 0 -- -- 92
2020-11-14 13:00:00 17.3 18 Sur 37 Sur 0 -- -- 89
2020-11-14 12:00:00 17.8 17 Sur 32 Sur 0 -- -- 82
2020-11-14 11:00:00 17.4 15 Sur 33 Sur 0 -- -- 81
2020-11-14 10:00:00 16.7 12 Sur 26 Sur 0 -- -- 81
2020-11-14 09:00:00 16.5 6 Sur 30 Sur 0 -- -- 80
2020-11-14 08:00:00 16.6 12 Sur 27 Sur 0 -- -- 80
2020-11-14 07:00:00 16.6 15 Sur 28 Sur 0 -- -- 81
2020-11-14 06:00:00 16.2 10 Sur 20 Sur 0 -- -- 81
2020-11-14 05:00:00 15.8 8 Sur 17 Sudeste 0 -- -- 82
2020-11-14 04:00:00 15.9 6 Sur 22 Sur 0 -- -- 81
2020-11-14 03:00:00 14.7 6 Sudeste 17 Sur 0 -- -- 87
2020-11-14 02:00:00 14.5 8 Sudeste 13 Sudeste 0 -- -- 88
2020-11-14 01:00:00 13.5 9 Sudeste 15 Sudeste 0 -- -- 91
2020-11-14 00:00:00 13.7 5 Sudeste 11 Sudeste 0 -- -- 90
2020-11-13 23:00:00 14.6 6 Sudeste 14 Sur 0 -- -- 86
2020-11-13 22:00:00 15.4 5 Sudeste 18 Sur 0 -- -- 84
2020-11-13 21:00:00 15 9 Sur 15 Sur 0 -- -- 86
2020-11-13 20:00:00 15.8 7 Sudoeste 19 Sur 0 -- -- 81
2020-11-13 19:00:00 16 10 Sur 22 Sur 0 -- -- 78
2020-11-13 18:00:00 16.9 10 Sudoeste 23 Sur 0 -- -- 74
2020-11-13 17:00:00 17.5 8 Sur 27 Sudoeste 0 -- -- 72
2020-11-13 16:00:00 18.3 12 Sudoeste 25 Sudoeste 0 -- -- 67
2020-11-13 15:00:00 18.5 9 Sudoeste 21 Sudoeste 0 -- -- 69
2020-11-13 14:00:00 18.6 12 Sudoeste 30 Sudoeste 0 -- -- 67
2020-11-13 13:00:00 18.5 14 Sudoeste 30 Sudoeste 0 -- -- 68
2020-11-13 12:00:00 17.8 8 Sur 22 Sudoeste 0 -- -- 72
2020-11-13 11:00:00 15 3 Noroeste 5 Noroeste 0 -- -- 88
2020-11-13 10:00:00 12.1 0 Calma 8 Sudeste 0 -- -- 95
2020-11-13 09:00:00 10.7 4 Sudeste 8 Este 0 -- -- 99
2020-11-13 08:00:00 10.2 5 Este 7 Este 0 -- -- 98
2020-11-13 07:00:00 10.3 5 Este 9 Sudeste 0 -- -- 99
2020-11-13 06:00:00 10.9 4 Sudeste 6 Noroeste 0 -- -- 99
2020-11-13 05:00:00 11.3 5 Sudeste 8 Este 0 -- -- 99
2020-11-13 04:00:00 11.5 6 Este 7 Este 0 -- -- 98
2020-11-13 03:00:00 11.6 4 Sudeste 6 Sudeste 0 -- -- 96
2020-11-13 02:00:00 12.5 6 Sur 8 Sur 0 -- -- 95
2020-11-13 01:00:00 12.9 4 Sudeste 6 Sur 0 -- -- 93
2020-11-13 00:00:00 13.1 0 Calma 5 Sudeste 0 -- -- 94
2020-11-12 23:00:00 13.4 0 Calma 5 Sur 0 -- -- 94
2020-11-12 22:00:00 13.7 3 Sur 4 Sudeste 0 -- -- 92
2020-11-12 21:00:00 14.2 4 Sudeste 5 Sur 0 -- -- 91
2020-11-12 20:00:00 15.1 3 Oeste 12 Sur 0 -- -- 90
2020-11-12 19:00:00 16.3 7 Sur 17 Sur 0 -- -- 80
2020-11-12 18:00:00 16.5 5 Sur 9 Sudoeste 0 -- -- 81
2020-11-12 17:00:00 17.5 4 Sudoeste 13 Sudoeste 0 -- -- 77
2020-11-12 16:00:00 18.7 12 Oeste 22 Oeste 0 -- -- 73
2020-11-12 15:00:00 19.6 12 Oeste 23 Oeste 0 -- -- 61
2020-11-12 14:00:00 19.2 13 Sudoeste 22 Sudoeste 0 -- -- 65
2020-11-12 13:00:00 17.9 7 Noroeste 20 Sudoeste 0 -- -- 73
2020-11-12 12:00:00 18.2 5 Oeste 16 Sudoeste 0 -- -- 69
2020-11-12 11:00:00 16.9 10 Sudeste 13 Sudeste 0 -- -- 75
2020-11-12 10:00:00 14.5 5 Sudeste 15 Sudeste 0 -- -- 81
2020-11-12 09:00:00 14.1 11 Sudeste 16 Sudeste 0 -- -- 81
2020-11-12 08:00:00 14.3 9 Sudeste 17 Sudeste 0 -- -- 77
2020-11-12 07:00:00 13.4 6 Sudeste 10 Sur 0 -- -- 91
2020-11-12 06:00:00 13.5 3 Sudeste 9 Sudeste 0 -- -- 95
2020-11-12 05:00:00 13.8 5 Sur 14 Sudeste 0 -- -- 93
2020-11-12 04:00:00 13.5 8 Sudeste 13 Este 0 -- -- 99
2020-11-12 03:00:00 13.6 7 Sudeste 13 Sudeste 0.4 -- -- 98
2020-11-12 02:00:00 14.1 9 Sur 30 Sudeste 1.8 -- -- 97
2020-11-12 01:00:00 13.9 13 Sur 24 Sur 2.2 -- -- 98
2020-11-12 00:00:00 14.1 11 Sur 26 Sur 1.4 -- -- 97
2020-11-11 23:00:00 14.1 11 Sudeste 22 Sur 0.8 -- -- 95
2020-11-11 22:00:00 14.5 9 Sudeste 23 Sur 0.2 -- -- 92
2020-11-11 21:00:00 14 10 Sudeste 23 Sur 0.8 -- -- 93
2020-11-11 20:00:00 13.5 6 Sudeste 18 Sur 1.6 -- -- 93
2020-11-11 19:00:00 14.5 9 Sur 26 Sur 0.6 -- -- 84
2020-11-11 18:00:00 15.6 10 Sur 27 Sudoeste 0 -- -- 79
2020-11-11 17:00:00 16.1 13 Sur 31 Sudoeste 0 -- -- 76
2020-11-11 16:00:00 16.4 14 Sur 30 Sudoeste 0 -- -- 77
2020-11-11 15:00:00 17 10 Sudoeste 28 Sur 0 -- -- 71
2020-11-11 14:00:00 17.1 13 Sur 36 Sur 0 -- -- 70
2020-11-11 13:00:00 16.9 15 Sur 32 Sur 0 -- -- 70
2020-11-11 12:00:00 16.6 11 Sur 29 Sur 0 -- -- 70
2020-11-11 11:00:00 15.7 12 Sur 25 Sur 0 -- -- 74
2020-11-11 10:00:00 14.1 9 Sur 18 Sur 0 -- -- 81
2020-11-11 09:00:00 12.4 9 Sudeste 17 Sudeste 0 -- -- 86
2020-11-11 08:00:00 11.3 9 Sudeste 15 Sudeste 0 -- -- 90
2020-11-11 07:00:00 11.2 6 Sudeste 12 Sudeste 0 -- -- 93
2020-11-11 06:00:00 10.5 6 Sudeste 9 Sudeste 0 -- -- 99
2020-11-11 05:00:00 10 4 Este 12 Este 0 -- -- 100
2020-11-11 04:00:00 9.5 6 Este 9 Sudeste 0 -- -- 100
2020-11-11 03:00:00 9.4 4 Sudeste 5 Sudeste 0 -- -- 99
2020-11-11 02:00:00 9.9 0 Calma 5 Sur 0 -- -- 99
2020-11-11 01:00:00 10.2 0 Calma 5 Este 0 -- -- 98
2020-11-11 00:00:00 9.9 3 Nordeste 6 Este 0 -- -- 98
2020-11-10 23:00:00 10.4 4 Este 8 Sudeste 0 -- -- 97
2020-11-10 22:00:00 11.2 6 Este 10 Sudeste 0 -- -- 95
2020-11-10 21:00:00 11.2 4 Sur 7 Sudeste 0 -- -- 92
2020-11-10 20:00:00 11.8 4 Sudeste 8 Sur 0 -- -- 90
2020-11-10 19:00:00 13 6 Sudeste 8 Sudeste 0 -- -- 87
2020-11-10 18:00:00 15.9 0 Calma 10 Sudoeste 0 -- -- 76
2020-11-10 17:00:00 17.1 6 Oeste 13 Sudoeste 0 -- -- 69
2020-11-10 16:00:00 17.6 8 Oeste 15 Oeste 0 -- -- 66
2020-11-10 15:00:00 18.8 4 Sudeste 10 Sur 0 -- -- 65
2020-11-10 14:00:00 17.8 6 Sudeste 17 Sudeste 0 -- -- 66
2020-11-10 13:00:00 16.8 12 Sudeste 22 Este 0 -- -- 68
2020-11-10 12:00:00 16.1 11 Este 19 Este 0 -- -- 75
2020-11-10 11:00:00 15.1 7 Este 14 Este 0 -- -- 78
2020-11-10 10:00:00 13.5 2 Este 12 Este 0 -- -- 88
2020-11-10 09:00:00 11.7 9 Este 18 Sudeste 0 -- -- 94
2020-11-10 08:00:00 12.1 9 Sudeste 17 Sudeste 0 -- -- 93
2020-11-10 07:00:00 12.1 5 Este 8 Este 0 -- -- 97
2020-11-10 06:00:00 12.2 0 Calma 5 Sudeste 0 -- -- 96
2020-11-10 05:00:00 12.1 3 Este 9 Este 0 -- -- 95
2020-11-10 04:00:00 12.2 5 Sudeste 8 Sudeste 0 -- -- 98
2020-11-10 03:00:00 11.9 4 Sudeste 8 Sudeste 0 -- -- 99
2020-11-10 02:00:00 11.8 4 Sudeste 5 Sudeste 0 -- -- 99
2020-11-10 01:00:00 11.8 3 Sur 5 Este 0 -- -- 98
2020-11-10 00:00:00 12.3 3 Sudeste 9 Sudeste 0 -- -- 96
2020-11-09 23:00:00 12.3 4 Este 8 Sudeste 0 -- -- 98
2020-11-09 22:00:00 11.9 6 Sudeste 7 Sudeste 0 -- -- 98
2020-11-09 21:00:00 11.5 4 Este 7 Este 0 -- -- 97
2020-11-09 20:00:00 12.5 0 Calma 8 Sur 0 -- -- 94
2020-11-09 19:00:00 13.6 6 Sur 9 Sudoeste 0 -- -- 89
2020-11-09 18:00:00 15.5 5 Sudoeste 14 Sudoeste 0 -- -- 80
2020-11-09 17:00:00 16.8 8 Oeste 22 Sudoeste 0 -- -- 73
2020-11-09 16:00:00 16.9 12 Oeste 22 Sudoeste 0 -- -- 72
2020-11-09 15:00:00 17 13 Sudoeste 23 Oeste 0 -- -- 79
2020-11-09 14:00:00 16.9 12 Sudoeste 22 Sudoeste 0 -- -- 82
2020-11-09 13:00:00 16.4 13 Sudoeste 23 Sudoeste 0 -- -- 86
2020-11-09 12:00:00 16 11 Sudoeste 21 Sudoeste 0 -- -- 92
2020-11-09 11:00:00 15.2 11 Sudoeste 21 Sudoeste 0.2 -- -- 96
2020-11-09 10:00:00 15.1 10 Sudoeste 20 Sudoeste 1 -- -- 97
2020-11-09 09:00:00 14.4 10 Sudoeste 15 Sudoeste 0 -- -- 99
2020-11-09 08:00:00 14.2 6 Sudoeste 16 Oeste 0 -- -- 99
2020-11-09 07:00:00 14.5 10 Sudoeste 17 Sudoeste 0 -- -- 99
2020-11-09 06:00:00 14.8 9 Sudoeste 20 Sudoeste 0 -- -- 99
2020-11-09 05:00:00 14.9 11 Sudoeste 23 Sudoeste 0 -- -- 99
2020-11-09 04:00:00 15 14 Sudoeste 31 Sudoeste 0.2 -- -- 99
2020-11-09 03:00:00 15 17 Sudoeste 40 Sudoeste 8.8 -- -- 99
2020-11-09 02:00:00 15.3 16 Sudoeste 37 Sudoeste 11.8 -- -- 98
2020-11-09 01:00:00 15.7 15 Sudoeste 34 Sudoeste 0.4 -- -- 96
2020-11-09 00:00:00 15.9 16 Sudoeste 40 Sudoeste 0 -- -- 95
2020-11-08 23:00:00 15.4 14 Sur 34 Sur 0 -- -- 93
2020-11-08 22:00:00 15.6 12 Sudoeste 33 Sur 0.2 -- -- 96
2020-11-08 21:00:00 15.4 13 Sudoeste 28 Sur 1 -- -- 96
2020-11-08 20:00:00 15.5 16 Sur 32 Sudoeste 0.8 -- -- 93
2020-11-08 19:00:00 15.8 14 Sur 29 Sur 0 -- -- 91
2020-11-08 18:00:00 16.2 12 Sudoeste 32 Sudoeste 0 -- -- 90
2020-11-08 17:00:00 16.4 18 Sudoeste 42 Sur 0.4 -- -- 91
2020-11-08 16:00:00 16.8 16 Sudoeste 43 Sudoeste 0 -- -- 88
2020-11-08 15:00:00 17.3 23 Sudoeste 51 Sur 0 -- -- 83
2020-11-08 14:00:00 17.7 19 Sur 44 Sur 0.2 -- -- 82
2020-11-08 13:00:00 17.3 21 Sur 49 Sudoeste 0 -- -- 84
2020-11-08 12:00:00 17.5 22 Sur 51 Sur 0 -- -- 83
2020-11-08 11:00:00 16.7 18 Sur 45 Sudoeste 0 -- -- 90
2020-11-08 10:00:00 16.6 18 Sur 41 Sudoeste 0 -- -- 88
2020-11-08 09:00:00 16.1 17 Sur 40 Sur 0.2 -- -- 90
2020-11-08 08:00:00 15.4 12 Sur 29 Sur 0 -- -- 80
2020-11-08 07:00:00 13.7 6 Sudeste 43 Sur 0.8 -- -- 94
2020-11-08 06:00:00 14 22 Sudoeste 60 Sudoeste 13 -- -- 93
2020-11-08 05:00:00 16.6 14 Sur 37 Sur 0.4 -- -- 88
2020-11-08 04:00:00 16.7 14 Sur 33 Sur 0 -- -- 88
2020-11-08 03:00:00 16 8 Sur 20 Sudeste 0 -- -- 91
2020-11-08 02:00:00 15.9 9 Sur 19 Sudeste 0 -- -- 92
2020-11-08 01:00:00 15.7 11 Sur 27 Sudeste 1.2 -- -- 92
2020-11-08 00:00:00 16.1 13 Sur 27 Sur 0 -- -- 89
2020-11-07 23:00:00 16.2 12 Sur 22 Sudeste 0 -- -- 88
2020-11-07 22:00:00 16.2 12 Sur 30 Sudeste 0 -- -- 88
2020-11-07 21:00:00 16.4 14 Sur 35 Sudeste 0 -- -- 90
2020-11-07 20:00:00 16.4 19 Sudoeste 38 Sur 0 -- -- 93
2020-11-07 19:00:00 16.3 19 Sur 40 Sudoeste 0 -- -- 93
2020-11-07 18:00:00 16 13 Sur 43 Sudoeste 1.2 -- -- 96
2020-11-07 17:00:00 16.1 19 Sur 44 Sudoeste 1.6 -- -- 95
2020-11-07 16:00:00 15.8 18 Sur 48 Sudoeste 5.6 -- -- 96
2020-11-07 15:00:00 16.3 19 Sur 46 Sur 1 -- -- 91
2020-11-07 14:00:00 17.2 20 Sur 41 Sur 0 -- -- 85
2020-11-07 13:00:00 17 19 Sur 40 Sur 0.2 -- -- 84
2020-11-07 12:00:00 15.5 16 Sur 41 Sur 0.4 -- -- 90
2020-11-07 11:00:00 15.6 14 Sur 32 Sur 0.2 -- -- 87
2020-11-07 10:00:00 16 17 Sudeste 37 Sur 0 -- -- 80
2020-11-07 09:00:00 14.9 13 Sudeste 26 Sur 0 -- -- 83
2020-11-07 08:00:00 13.9 13 Sudeste 22 Sudeste 0 -- -- 87
2020-11-07 07:00:00 13.8 12 Sudeste 22 Sudeste 0 -- -- 88
2020-11-07 06:00:00 13.9 13 Sudeste 20 Sudeste 0 -- -- 88
2020-11-07 05:00:00 14.2 11 Sudeste 24 Sudeste 0 -- -- 87
2020-11-07 04:00:00 14 8 Sudeste 23 Sudeste 0.2 -- -- 89
2020-11-07 03:00:00 14.5 10 Sur 21 Sur 0 -- -- 86
2020-11-07 02:00:00 14.2 10 Sur 17 Sur 0 -- -- 86
2020-11-07 01:00:00 13.1 6 Sur 13 Sudeste 0 -- -- 93
2020-11-07 00:00:00 13.5 8 Sudeste 17 Sudeste 0 -- -- 94
2020-11-06 23:00:00 13.8 7 Sudeste 13 Sudeste 0 -- -- 92
2020-11-06 22:00:00 14.4 6 Sudeste 13 Sur 0 -- -- 90
2020-11-06 21:00:00 15 4 Sudeste 16 Sudeste 0 -- -- 86
2020-11-06 20:00:00 15 10 Sur 23 Sudeste 0 -- -- 88
2020-11-06 19:00:00 14.9 13 Sur 24 Sur 0.4 -- -- 91
2020-11-06 18:00:00 14.5 3 Este 9 Sudoeste 0.6 -- -- 95
2020-11-06 17:00:00 14.8 4 Norte 17 Sudeste 0 -- -- 91
2020-11-06 16:00:00 14.5 12 Sudeste 20 Sudeste 0 -- -- 93
2020-11-06 15:00:00 14.6 9 Sudeste 24 Sudeste 0.8 -- -- 91
2020-11-06 14:00:00 15.7 13 Sudeste 36 Sur 0 -- -- 82
2020-11-06 13:00:00 15.8 12 Sudeste 42 Sudeste 0.2 -- -- 83
2020-11-06 12:00:00 15.4 12 Sudeste 32 Sudeste 1.6 -- -- 87
2020-11-06 11:00:00 16.8 13 Este 23 Este 0 -- -- 72
2020-11-06 10:00:00 16.6 12 Este 32 Este 0 -- -- 68
2020-11-06 09:00:00 15.7 15 Sudeste 29 Sudeste 0 -- -- 70
2020-11-06 08:00:00 15.7 13 Sudeste 21 Sudeste 0 -- -- 71
2020-11-06 07:00:00 16.1 13 Sudeste 21 Sudeste 0 -- -- 70
2020-11-06 06:00:00 16.1 14 Sudeste 28 Este 0 -- -- 70
2020-11-06 05:00:00 16.9 16 Sudeste 35 Sudeste 0 -- -- 67
2020-11-06 04:00:00 16.5 16 Este 27 Este 0 -- -- 69
2020-11-06 03:00:00 15.9 13 Sudeste 23 Este 0 -- -- 72
2020-11-06 02:00:00 16.3 9 Este 34 Este 0 -- -- 69
2020-11-06 01:00:00 16.9 18 Sudeste 30 Sudeste 0 -- -- 67
2020-11-06 00:00:00 17 17 Sudeste 33 Sudeste 0 -- -- 69
2020-11-05 23:00:00 17 15 Sudeste 31 Este 0 -- -- 69
2020-11-05 22:00:00 17.2 13 Este 27 Sudeste 0 -- -- 66
2020-11-05 21:00:00 15.8 4 Este 12 Este 0 -- -- 73
2020-11-05 20:00:00 16.2 2 Sudoeste 23 Sudeste 0 -- -- 71
2020-11-05 19:00:00 16 12 Sudeste 21 Este 0 -- -- 72
2020-11-05 18:00:00 17.2 6 Este 30 Este 0 -- -- 67
2020-11-05 17:00:00 17.7 19 Este 36 Sudeste 0 -- -- 64
2020-11-05 16:00:00 16.6 4 Este 31 Nordeste 0 -- -- 70
2020-11-05 15:00:00 17 16 Este 36 Este 0 -- -- 63
2020-11-05 14:00:00 17.5 20 Este 38 Este 0 -- -- 62
2020-11-05 13:00:00 15.7 15 Este 42 Este 0 -- -- 65
2020-11-05 12:00:00 14.6 23 Este 45 Este 0 -- -- 64
2020-11-05 11:00:00 12.9 24 Este 43 Este 0 -- -- 69
2020-11-05 10:00:00 12.5 17 Este 40 Este 0 -- -- 68
2020-11-05 09:00:00 11.2 9 Noroeste 27 Norte 0 -- -- 72
2020-11-05 08:00:00 11.2 10 Norte 25 Norte 0 -- -- 69
2020-11-05 07:00:00 11.8 12 Norte 41 Este 0 -- -- 67
2020-11-05 06:00:00 11.5 19 Nordeste 43 Nordeste 0 -- -- 66
2020-11-05 05:00:00 11.7 16 Nordeste 36 Nordeste 0 -- -- 65
2020-11-05 04:00:00 11.9 13 Nordeste 37 Nordeste 0 -- -- 63
2020-11-05 03:00:00 12 21 Nordeste 50 Nordeste 0 -- -- 62
2020-11-05 02:00:00 12 25 Este 61 Este 0 -- -- 61
2020-11-05 01:00:00 11.9 27 Este 59 Este 0 -- -- 62
2020-11-05 00:00:00 12.1 28 Nordeste 49 Nordeste 0 -- -- 60
2020-11-04 23:00:00 12.1 28 Este 48 Nordeste 0 -- -- 61
2020-11-04 22:00:00 11.6 20 Este 44 Este 0 -- -- 64
2020-11-04 21:00:00 11.8 22 Este 52 Este 0 -- -- 65
2020-11-04 20:00:00 12 24 Este 47 Este 0 -- -- 64
2020-11-04 19:00:00 12.2 21 Nordeste 47 Este 0 -- -- 66
2020-11-04 18:00:00 13 20 Nordeste 49 Este 0 -- -- 63
2020-11-04 17:00:00 14 26 Nordeste 54 Este 0 -- -- 58
2020-11-04 16:00:00 14.5 20 Nordeste 41 Nordeste 0 -- -- 58
2020-11-04 15:00:00 14.5 17 Nordeste 38 Nordeste 0 -- -- 61
2020-11-04 14:00:00 14 15 Nordeste 37 Nordeste 0 -- -- 64
2020-11-04 13:00:00 12.7 16 Nordeste 36 Este 0 -- -- 71
2020-11-04 12:00:00 10.6 10 Nordeste 23 Norte 0 -- -- 84
2020-11-04 11:00:00 9.7 8 Nordeste 17 Norte 0 -- -- 87
2020-11-04 10:00:00 8.2 10 Este 22 Sudeste 0 -- -- 91
2020-11-04 09:00:00 6.9 3 Este 10 Norte 0 -- -- 95
2020-11-04 08:00:00 6.6 5 Sudeste 10 Norte 0 -- -- 96
2020-11-04 07:00:00 7 4 Noroeste 9 Sudeste 0 -- -- 94
2020-11-04 06:00:00 7.9 0 Calma 5 Sudoeste 0 -- -- 92
2020-11-04 05:00:00 7.1 0 Calma 10 Noroeste 0 -- -- 94
2020-11-04 04:00:00 6.7 4 Nordeste 12 Sudeste 0 -- -- 94
2020-11-04 03:00:00 6.8 5 Este 12 Este 0 -- -- 91
2020-11-04 02:00:00 7.4 3 Este 11 Este 0 -- -- 88
2020-11-04 01:00:00 8.3 3 Sudeste 6 Este 0 -- -- 85
2020-11-04 00:00:00 9.2 4 Sudeste 20 Nordeste 0 -- -- 80
2020-11-03 23:00:00 9.8 11 Nordeste 22 Nordeste 0 -- -- 78
2020-11-03 22:00:00 10.1 14 Nordeste 23 Nordeste 0 -- -- 79
2020-11-03 21:00:00 10.4 11 Nordeste 20 Nordeste 0 -- -- 78
2020-11-03 20:00:00 10.7 10 Nordeste 17 Nordeste 0 -- -- 75
2020-11-03 19:00:00 11.3 11 Nordeste 25 Norte 0 -- -- 74
2020-11-03 18:00:00 12.4 12 Nordeste 35 Nordeste 0 -- -- 70
2020-11-03 17:00:00 14.1 18 Nordeste 36 Norte 0 -- -- 62
2020-11-03 16:00:00 14.8 15 Nordeste 33 Nordeste 0 -- -- 57
2020-11-03 15:00:00 14.6 17 Nordeste 33 Norte 0 -- -- 62
2020-11-03 14:00:00 14.5 16 Nordeste 33 Nordeste 0 -- -- 61
2020-11-03 13:00:00 14.2 19 Nordeste 34 Norte 0 -- -- 65
2020-11-03 12:00:00 13.3 14 Nordeste 29 Nordeste 0 -- -- 71
2020-11-03 11:00:00 12.5 9 Nordeste 22 Nordeste 0 -- -- 77
2020-11-03 10:00:00 11.9 11 Nordeste 22 Nordeste 0 -- -- 79
2020-11-03 09:00:00 10.6 11 Nordeste 21 Nordeste 0 -- -- 88
2020-11-03 08:00:00 9 2 Este 9 Sudeste 0 -- -- 99
2020-11-03 07:00:00 9 3 Oeste 10 Nordeste 0 -- -- 100
2020-11-03 06:00:00 9.3 4 Norte 13 Norte 0 -- -- 99
2020-11-03 05:00:00 9.9 0 Calma 9 Este 0 -- -- 99
2020-11-03 04:00:00 10.4 3 Sudeste 10 Sudeste 0 -- -- 100
2020-11-03 03:00:00 10.1 2 Sudeste 15 Norte 0 -- -- 100
2020-11-03 02:00:00 9.6 7 Norte 17 Noroeste 0 -- -- 100
2020-11-03 01:00:00 8.9 2 Este 7 Sudeste 0 -- -- 99
2020-11-03 00:00:00 9.5 5 Sudeste 7 Sur 0 -- -- 98
2020-11-02 23:00:00 10 2 Sudeste 8 Sur 0 -- -- 96
2020-11-02 22:00:00 11 5 Sur 8 Sur 0 -- -- 92
2020-11-02 21:00:00 12.5 3 Norte 8 Noroeste 0 -- -- 90
2020-11-02 20:00:00 13.4 0 Calma 11 Noroeste 0 -- -- 86
2020-11-02 19:00:00 14.7 9 Noroeste 16 Noroeste 0 -- -- 78
2020-11-02 18:00:00 15.9 6 Noroeste 21 Norte 0 -- -- 77
2020-11-02 17:00:00 16.4 10 Noroeste 17 Noroeste 0 -- -- 80
2020-11-02 16:00:00 16.9 3 Noroeste 10 Noroeste 0 -- -- 81
2020-11-02 15:00:00 16.5 6 Norte 11 Nordeste 0 -- -- 85
2020-11-02 14:00:00 16.1 6 Nordeste 14 Nordeste 0 -- -- 87
2020-11-02 13:00:00 16 8 Este 18 Noroeste 0 -- -- 87
2020-11-02 12:00:00 15.7 6 Norte 23 Noroeste 0 -- -- 93
2020-11-02 11:00:00 16 11 Noroeste 20 Noroeste 0.4 -- -- 98
2020-11-02 10:00:00 15.9 8 Oeste 36 Sudoeste 1.8 -- -- 100
2020-11-02 09:00:00 17.6 18 Sudoeste 36 Sudoeste 1.8 -- -- 100
2020-11-02 08:00:00 18 16 Sudoeste 33 Sudoeste 0 -- -- 100
2020-11-02 07:00:00 17.8 17 Sudoeste 34 Sudoeste 0 -- -- 100
2020-11-02 06:00:00 17.6 18 Sudoeste 37 Sudoeste 0 -- -- 100
2020-11-02 05:00:00 17.6 19 Sudoeste 41 Sudoeste 0 -- -- 100
2020-11-02 04:00:00 17.5 19 Sudoeste 40 Sudoeste 0 -- -- 100
2020-11-02 03:00:00 17.7 18 Sudoeste 38 Sudoeste 1.6 -- -- 100
2020-11-02 02:00:00 17.9 17 Sudoeste 37 Sudoeste 0 -- -- 100
2020-11-02 01:00:00 18 17 Sudoeste 35 Sur 0 -- -- 100
2020-11-02 00:00:00 17.9 18 Sudoeste 38 Sudoeste 0.2 -- -- 100
2020-11-01 23:00:00 17.8 16 Sudoeste 38 Sudoeste 0.2 -- -- 100
2020-11-01 22:00:00 17.9 18 Sudoeste 40 Sudoeste 0.2 -- -- 100
2020-11-01 21:00:00 17.8 16 Sudoeste 34 Sur 0.4 -- -- 100
2020-11-01 20:00:00 17.7 17 Sudoeste 45 Sudoeste 0.2 -- -- 100
2020-11-01 19:00:00 17.9 15 Sur 35 Sur 0 -- -- 100
2020-11-01 18:00:00 17.8 20 Sudoeste 40 Sudoeste 1 -- -- 100
2020-11-01 17:00:00 18 20 Sudoeste 38 Sudoeste 0.4 -- -- 100
2020-11-01 16:00:00 18 17 Sudoeste 39 Sur 0.6 -- -- 100
2020-11-01 15:00:00 18.1 18 Sudoeste 35 Sudoeste 1 -- -- 100
2020-11-01 14:00:00 17.9 15 Sudoeste 35 Sur 0.8 -- -- 100
2020-11-01 13:00:00 17.9 17 Sudoeste 36 Sur 0.4 -- -- 100
2020-11-01 12:00:00 17.8 17 Sur 37 Sur 0.4 -- -- 100
2020-11-01 11:00:00 17.8 16 Sudoeste 38 Sudoeste 0.6 -- -- 100
2020-11-01 10:00:00 17.8 18 Sudoeste 40 Sudoeste 0.2 -- -- 100
2020-11-01 09:00:00 17.7 17 Sudoeste 40 Sur 0.4 -- -- 100
2020-11-01 08:00:00 17.5 14 Sur 37 Sur 0.8 -- -- 100
2020-11-01 07:00:00 17.5 18 Sur 40 Sur 0.2 -- -- 99
2020-11-01 06:00:00 17.6 19 Sur 43 Sudoeste 0.4 -- -- 99
2020-11-01 05:00:00 17.6 18 Sur 47 Sudoeste 0.4 -- -- 98
2020-11-01 04:00:00 17.6 20 Sur 45 Sudoeste 0 -- -- 99
2020-11-01 03:00:00 17.4 18 Sur 45 Sur 0.6 -- -- 99
2020-11-01 02:00:00 17.3 17 Sur 37 Sur 3.4 -- -- 99
2020-11-01 01:00:00 17.4 18 Sur 36 Sur 1.2 -- -- 98
2020-11-01 00:00:00 18 14 Sur 37 Sur 0.2 -- -- 95
2020-10-31 23:00:00 17.8 15 Sur 37 Sur 0 -- -- 97
2020-10-31 22:00:00 17.8 21 Sur 37 Sudoeste 0 -- -- 97
2020-10-31 21:00:00 17.8 17 Sudoeste 39 Sur 0 -- -- 98
2020-10-31 20:00:00 17.7 16 Sudoeste 32 Sur 0.4 -- -- 98
2020-10-31 19:00:00 17.9 14 Sudoeste 35 Sur 0 -- -- 96
2020-10-31 18:00:00 18 15 Sudoeste 42 Sur 0 -- -- 95
2020-10-31 17:00:00 17.8 19 Sur 48 Sur 0 -- -- 96
2020-10-31 16:00:00 17.6 18 Sudoeste 41 Sudoeste 0 -- -- 98
2020-10-31 15:00:00 17.6 17 Sur 35 Sur 0 -- -- 97
2020-10-31 14:00:00 17.3 17 Sur 44 Sur 0 -- -- 97
2020-10-31 13:00:00 17.7 20 Sudoeste 53 Sudoeste 0 -- -- 95
2020-10-31 12:00:00 17.9 19 Sudoeste 40 Sur 0 -- -- 94
2020-10-31 11:00:00 17.8 18 Sur 39 Sudoeste 0.2 -- -- 94
2020-10-31 10:00:00 17.9 16 Sur 37 Sur 0 -- -- 93
2020-10-31 09:00:00 17.7 18 Sur 33 Sudoeste 0 -- -- 93
2020-10-31 08:00:00 17.4 15 Sur 39 Sudoeste 0 -- -- 94
2020-10-31 07:00:00 17.5 17 Sur 31 Sur 0 -- -- 92
2020-10-31 06:00:00 17.1 14 Sur 36 Sur 0 -- -- 93
2020-10-31 05:00:00 16.8 11 Sur 30 Sur 0 -- -- 93
2020-10-31 04:00:00 17.1 11 Sur 30 Sudeste 0 -- -- 89
2020-10-31 03:00:00 16.9 12 Sur 28 Sur 0 -- -- 90
2020-10-31 02:00:00 16.4 16 Sur 30 Sur 0 -- -- 92
2020-10-31 01:00:00 17.3 10 Sur 21 Sudoeste 0 -- -- 83
2020-10-31 00:00:00 17.2 13 Sur 21 Sur 0 -- -- 81
2020-10-30 23:00:00 17.1 11 Sur 24 Sur 0 -- -- 80
2020-10-30 22:00:00 17.1 18 Sur 30 Sur 0 -- -- 78
2020-10-30 21:00:00 16.6 9 Sur 24 Sur 0 -- -- 80
2020-10-30 20:00:00 16.3 5 Sur 15 Sur 0 -- -- 83
2020-10-30 19:00:00 16.2 6 Sur 18 Sudoeste 0 -- -- 80
2020-10-30 18:00:00 16.9 9 Sudoeste 22 Sudoeste 0 -- -- 78
2020-10-30 17:00:00 17.7 6 Norte 14 Oeste 0 -- -- 80
2020-10-30 16:00:00 17.7 13 Noroeste 18 Noroeste 0 -- -- 79
2020-10-30 15:00:00 17.6 5 Noroeste 15 Oeste 0 -- -- 79
2020-10-30 14:00:00 17.9 10 Noroeste 16 Noroeste 0 -- -- 73
2020-10-30 13:00:00 17.4 5 Noroeste 10 Noroeste 0 -- -- 76
2020-10-30 12:00:00 15.9 7 Noroeste 10 Noroeste 0 -- -- 77
2020-10-30 11:00:00 15.3 7 Noroeste 10 Noroeste 0 -- -- 84
2020-10-30 10:00:00 13.1 3 Este 6 Sur 0 -- -- 94
2020-10-30 09:00:00 10.7 2 Sur 4 Sur 0 -- -- 99
2020-10-30 08:00:00 9.8 4 Sudeste 9 Este 0 -- -- 98
2020-10-30 07:00:00 9.6 6 Este 8 Este 0 -- -- 98
2020-10-30 06:00:00 10.4 5 Sudeste 6 Sudeste 0 -- -- 96
2020-10-30 05:00:00 11.6 0 Calma 7 Noroeste 0 -- -- 95
2020-10-30 04:00:00 12.3 2 Este 4 Este 0 -- -- 94
2020-10-30 03:00:00 12.2 0 Calma 4 Sudeste 0 -- -- 94
2020-10-30 02:00:00 12.4 2 Oeste 5 Noroeste 0 -- -- 93
2020-10-30 01:00:00 11.9 2 Este 6 Este 0 -- -- 94
2020-10-30 00:00:00 11.5 3 Sudeste 4 Sudeste 0 -- -- 95
2020-10-29 23:00:00 10.9 3 Sudeste 6 Sudeste 0 -- -- 94
2020-10-29 22:00:00 10.8 3 Sudeste 7 Sudeste 0 -- -- 94
2020-10-29 21:00:00 11.4 5 Sudeste 8 Sudeste 0 -- -- 92
2020-10-29 20:00:00 12.1 6 Sur 8 Sur 0 -- -- 88
2020-10-29 19:00:00 14.1 6 Sur 10 Sudoeste 0 -- -- 82
2020-10-29 18:00:00 16.5 6 Sudoeste 15 Sudoeste 0 -- -- 69
2020-10-29 17:00:00 17.8 10 Sudoeste 17 Sudoeste 0 -- -- 62
2020-10-29 16:00:00 18.1 9 Sudoeste 17 Sudoeste 0 -- -- 62
2020-10-29 15:00:00 17.9 10 Sudoeste 21 Sudoeste 0 -- -- 61
2020-10-29 14:00:00 17.9 11 Sudoeste 22 Sudoeste 0 -- -- 62
2020-10-29 13:00:00 16.4 6 Noroeste 13 Oeste 0 -- -- 79
2020-10-29 12:00:00 15.9 9 Noroeste 14 Oeste 0 -- -- 82
2020-10-29 11:00:00 16.8 6 Sur 12 Sur 0 -- -- 72
2020-10-29 10:00:00 14.9 4 Este 7 Sudeste 0 -- -- 88
2020-10-29 09:00:00 12.2 4 Este 8 Este 0 -- -- 95
2020-10-29 08:00:00 12.1 0 Calma 6 Sur 0 -- -- 92
2020-10-29 07:00:00 13.2 0 Calma 8 Este 0 -- -- 96
2020-10-29 06:00:00 13.5 5 Sudeste 8 Sudeste 0 -- -- 96
2020-10-29 05:00:00 13.6 4 Noroeste 9 Sur 0 -- -- 94
2020-10-29 04:00:00 13.6 4 Sudeste 9 Sudeste 0 -- -- 96
2020-10-29 03:00:00 13.6 5 Sudeste 8 Sudeste 0 -- -- 97
2020-10-29 02:00:00 13.6 3 Sudeste 4 Sudeste 0 -- -- 97
2020-10-29 01:00:00 13.9 2 Este 4 Sudeste 0 -- -- 96
2020-10-29 00:00:00 14.1 2 Noroeste 9 Sur 0 -- -- 95
2020-10-28 23:00:00 14.2 5 Sur 11 Este 0 -- -- 95
2020-10-28 22:00:00 14.3 5 Sudeste 14 Sudoeste 0 -- -- 94
2020-10-28 21:00:00 13.8 6 Sur 12 Sur 0 -- -- 95
2020-10-28 20:00:00 13.6 6 Sur 13 Sur 0 -- -- 93
2020-10-28 19:00:00 14.1 6 Sur 10 Sur 0 -- -- 89
2020-10-28 18:00:00 15.3 7 Sur 25 Sudoeste 0 -- -- 86
2020-10-28 17:00:00 16.2 9 Sudoeste 21 Sudoeste 0 -- -- 78
2020-10-28 16:00:00 16.8 13 Sudoeste 26 Sudoeste 0 -- -- 76
2020-10-28 15:00:00 17.5 14 Sudoeste 22 Sudoeste 0 -- -- 74
2020-10-28 14:00:00 17 10 Sudoeste 18 Sudoeste 0 -- -- 72
2020-10-28 13:00:00 16.2 10 Sudoeste 19 Sudoeste 0 -- -- 81
2020-10-28 12:00:00 14.7 8 Oeste 30 Noroeste 0.4 -- -- 93
2020-10-28 11:00:00 15.9 10 Sudoeste 19 Sudoeste 0 -- -- 89
2020-10-28 10:00:00 14.8 9 Sur 19 Sudoeste 0 -- -- 94
2020-10-28 09:00:00 12.9 4 Sudeste 10 Sudoeste 0 -- -- 100
2020-10-28 08:00:00 12.8 2 Oeste 9 Oeste 0 -- -- 100
2020-10-28 07:00:00 12.5 4 Noroeste 9 Este 0 -- -- 100
2020-10-28 06:00:00 12.4 5 Sur 7 Sur 0 -- -- 100
2020-10-28 05:00:00 12.2 6 Este 8 Este 0 -- -- 99
2020-10-28 04:00:00 12.8 4 Sudeste 8 Sur 0 -- -- 98
2020-10-28 03:00:00 13.7 3 Sur 15 Sudoeste 0 -- -- 98
2020-10-28 02:00:00 14.5 7 Sudoeste 16 Oeste 0 -- -- 99
2020-10-28 01:00:00 14.6 8 Sudoeste 17 Sudoeste 0.6 -- -- 99
2020-10-28 00:00:00 14.8 10 Sudoeste 19 Sudoeste 0 -- -- 98
2020-10-27 23:00:00 14.6 7 Sudoeste 16 Sudoeste 0 -- -- 100
2020-10-27 22:00:00 14.5 7 Sur 13 Sur 0 -- -- 100
2020-10-27 21:00:00 14.4 4 Sur 14 Sudoeste 0.2 -- -- 100
2020-10-27 20:00:00 14.3 8 Sudoeste 12 Oeste 0.6 -- -- 100
2020-10-27 19:00:00 14.5 7 Oeste 44 Sur 4.2 -- -- 100
2020-10-27 18:00:00 15.7 20 Sudoeste 43 Sur 1 -- -- 99
2020-10-27 17:00:00 15.6 24 Sur 50 Sudoeste 1.6 -- -- 99
2020-10-27 16:00:00 15.4 22 Sur 54 Sur 0.6 -- -- 99
2020-10-27 15:00:00 15.2 22 Sur 43 Sur 1.8 -- -- 99
2020-10-27 14:00:00 15 21 Sur 44 Sudoeste 2.6 -- -- 98
2020-10-27 13:00:00 15 17 Sur 46 Sudoeste 3 -- -- 97
2020-10-27 12:00:00 15.1 17 Sur 43 Sur 1 -- -- 95
2020-10-27 11:00:00 14.7 15 Sur 43 Sur 0.4 -- -- 95
2020-10-27 10:00:00 14.8 17 Sur 38 Sur 0 -- -- 91
2020-10-27 09:00:00 14.1 16 Sur 34 Sudoeste 0 -- -- 94
2020-10-27 08:00:00 14 17 Sur 41 Sudoeste 0 -- -- 92
2020-10-27 07:00:00 14 16 Sur 36 Sudoeste 0 -- -- 91
2020-10-27 06:00:00 13.7 15 Sur 41 Sudoeste 0 -- -- 89
2020-10-27 05:00:00 13.8 13 Sur 40 Sur 0 -- -- 88
2020-10-27 04:00:00 13.6 14 Sur 29 Sudoeste 0.2 -- -- 92
2020-10-27 03:00:00 13.6 8 Sur 25 Sudoeste 0 -- -- 89
2020-10-27 02:00:00 13.4 9 Sudoeste 18 Sur 0 -- -- 91
2020-10-27 01:00:00 13.1 8 Sur 24 Sudoeste 0 -- -- 93
2020-10-27 00:00:00 13 10 Sur 21 Sudoeste 0 -- -- 90
2020-10-26 23:00:00 13.1 10 Sur 19 Sur 0 -- -- 88
2020-10-26 22:00:00 12.8 8 Sudoeste 16 Sudoeste 0 -- -- 90
2020-10-26 21:00:00 12.4 6 Sur 26 Sudoeste 0 -- -- 89
2020-10-26 20:00:00 12.3 4 Sur 6 Sur 0.2 -- -- 96
2020-10-26 19:00:00 13.2 3 Sudoeste 14 Oeste 0 -- -- 92
2020-10-26 18:00:00 13.6 5 Sur 17 Sudoeste 0 -- -- 91
2020-10-26 17:00:00 13.3 12 Sudoeste 31 Oeste 0.6 -- -- 89
2020-10-26 16:00:00 16.2 13 Oeste 28 Sudoeste 0 -- -- 73
2020-10-26 15:00:00 15.6 17 Sudoeste 28 Sudoeste 0 -- -- 76
2020-10-26 14:00:00 15 10 Sudoeste 24 Sudoeste 0 -- -- 84
2020-10-26 13:00:00 13.9 10 Sudoeste 17 Oeste 0 -- -- 82
2020-10-26 12:00:00 13.2 8 Sudoeste 11 Sur 0 -- -- 90
2020-10-26 11:00:00 10.4 4 Este 15 Sudeste 0.4 -- -- 98
2020-10-26 10:00:00 9.3 8 Este 15 Este 1.2 -- -- 100
2020-10-26 09:00:00 8.1 9 Este 16 Sur 0.4 -- -- 100
2020-10-26 08:00:00 7.3 2 Sudoeste 10 Sudeste 0.8 -- -- 100
2020-10-26 07:00:00 6.9 7 Sudeste 13 Sudeste 0 -- -- 100
2020-10-26 06:00:00 7.4 4 Sudeste 10 Sudeste 0 -- -- 99
2020-10-26 05:00:00 7.7 7 Este 12 Sudeste 0.2 -- -- 100
2020-10-26 04:00:00 7.8 5 Sudeste 11 Este 0 -- -- 99
2020-10-26 03:00:00 8 5 Sudeste 10 Este 1.2 -- -- 98
2020-10-26 02:00:00 8.4 6 Este 19 Sudeste 0.2 -- -- 95
2020-10-26 01:00:00 9.1 11 Sudeste 30 Noroeste 2.8 -- -- 95
2020-10-26 00:00:00 10.2 8 Sudeste 15 Sudeste 0 -- -- 95